createdAt,value
2018-04-22T00:01:23.292Z,88.80
2018-04-22T00:03:49.375Z,88.50
2018-04-22T00:06:16.184Z,88.00
2018-04-22T00:08:42.268Z,87.90
2018-04-22T00:11:08.353Z,88.30
2018-04-22T00:13:34.439Z,88.60
2018-04-22T00:16:00.520Z,88.40
2018-04-22T00:18:26.592Z,88.30
2018-04-22T00:20:52.659Z,88.30
2018-04-22T00:23:18.743Z,88.50
2018-04-22T00:25:44.819Z,88.80
2018-04-22T00:28:10.894Z,89.00
2018-04-22T00:30:36.989Z,89.40
2018-04-22T00:33:03.799Z,90.00
2018-04-22T00:35:29.879Z,90.00
2018-04-22T00:37:55.955Z,90.10
2018-04-22T00:40:22.037Z,90.10
2018-04-22T00:42:48.120Z,90.20
2018-04-22T00:45:14.211Z,90.20
2018-04-22T00:47:40.281Z,90.20
2018-04-22T00:50:07.096Z,90.40
2018-04-22T00:52:33.172Z,90.30
2018-04-22T00:54:59.243Z,90.60
2018-04-22T00:57:25.319Z,90.60
2018-04-22T00:59:51.403Z,90.60
2018-04-22T01:02:18.219Z,90.70
2018-04-22T01:04:44.288Z,90.70
2018-04-22T01:07:11.104Z,91.10
2018-04-22T01:09:37.172Z,91.00
2018-04-22T01:12:03.268Z,91.10
2018-04-22T01:17:39.135Z,91.10
2018-04-22T01:20:05.210Z,91.10
2018-04-22T01:22:31.286Z,91.10
2018-04-22T01:24:57.350Z,91.20
2018-04-22T01:27:23.429Z,91.20
2018-04-22T01:29:49.497Z,91.40
2018-04-22T01:32:15.585Z,91.50
2018-04-22T01:34:41.654Z,91.60
2018-04-22T01:37:07.746Z,91.80
2018-04-22T01:39:33.822Z,92.10
2018-04-22T01:41:59.898Z,92.00
2018-04-22T01:44:25.973Z,92.00
2018-04-22T01:46:52.045Z,92.10
2018-04-22T01:49:18.126Z,92.20
2018-04-22T01:51:44.221Z,92.40
2018-04-22T01:54:10.310Z,92.50
2018-04-22T01:56:36.411Z,92.60
2018-04-22T01:59:03.242Z,92.60
2018-04-22T02:01:29.333Z,92.60
2018-04-22T02:03:55.409Z,92.50
2018-04-22T02:06:22.258Z,92.50
2018-04-22T02:08:50.590Z,92.60
2018-04-22T02:11:16.682Z,92.50
2018-04-22T02:13:42.765Z,92.60
2018-04-22T02:16:08.846Z,92.50
2018-04-22T02:18:34.937Z,92.60
2018-04-22T02:21:01.759Z,92.60
2018-04-22T02:23:27.850Z,92.60
2018-04-22T02:25:53.950Z,92.60
2018-04-22T02:28:20.048Z,92.70
2018-04-22T02:30:46.875Z,93.00
2018-04-22T02:33:12.970Z,93.00
2018-04-22T02:35:39.058Z,93.10
2018-04-22T02:38:05.893Z,93.00
2018-04-22T02:40:32.731Z,93.00
2018-04-22T02:42:59.576Z,93.00
2018-04-22T02:45:26.394Z,93.10
2018-04-22T02:47:52.462Z,93.10
2018-04-22T02:50:18.542Z,93.10
2018-04-22T02:52:44.631Z,93.30
2018-04-22T02:55:10.721Z,93.40
2018-04-22T02:57:37.545Z,93.90
2018-04-22T03:00:03.635Z,93.60
2018-04-22T03:02:29.709Z,93.70
2018-04-22T03:04:56.537Z,93.50
2018-04-22T03:07:22.622Z,93.50
2018-04-22T03:09:48.713Z,93.50
2018-04-22T03:12:15.541Z,93.50
2018-04-22T03:14:42.385Z,93.20
2018-04-22T03:17:08.459Z,93.40
2018-04-22T03:19:34.545Z,93.40
2018-04-22T03:22:01.378Z,93.50
2018-04-22T03:24:28.201Z,93.60
2018-04-22T03:26:54.290Z,93.60
2018-04-22T03:29:20.365Z,93.60
2018-04-22T03:31:46.459Z,93.70
2018-04-22T03:34:12.551Z,93.70
2018-04-22T03:36:38.638Z,93.80
2018-04-22T03:39:04.706Z,93.90
2018-04-22T03:41:30.798Z,93.90
2018-04-22T03:43:57.626Z,94.00
2018-04-22T03:46:23.713Z,93.90
2018-04-22T03:48:49.802Z,94.00
2018-04-22T03:51:16.618Z,94.00
2018-04-22T03:53:42.686Z,94.00
2018-04-22T03:56:08.757Z,94.00
2018-04-22T03:58:34.833Z,94.00
2018-04-22T04:01:00.910Z,94.00
2018-04-22T04:03:27.019Z,94.00
2018-04-22T04:05:53.090Z,93.90
2018-04-22T04:08:19.897Z,93.90
2018-04-22T04:10:45.967Z,93.90
2018-04-22T04:13:12.778Z,94.00
2018-04-22T04:15:38.890Z,93.90
2018-04-22T04:21:51.567Z,93.80
2018-04-22T04:27:46.977Z,93.60
2018-04-22T04:30:13.058Z,93.70
2018-04-22T04:32:39.125Z,93.60
2018-04-22T04:35:05.189Z,93.60
2018-04-22T04:37:31.260Z,93.40
2018-04-22T04:39:57.346Z,93.40
2018-04-22T04:42:23.417Z,93.40
2018-04-22T04:44:49.497Z,93.30
2018-04-22T04:47:15.573Z,93.30
2018-04-22T04:49:42.367Z,93.20
2018-04-22T04:52:08.466Z,93.20
2018-04-22T04:54:35.314Z,93.20
2018-04-22T04:57:02.149Z,93.10
2018-04-22T04:59:28.986Z,93.10
2018-04-22T05:01:55.821Z,93.40
2018-04-22T05:04:21.909Z,93.10
2018-04-22T05:06:50.870Z,93.20
2018-04-22T05:09:16.962Z,93.20
2018-04-22T05:11:43.057Z,93.20
2018-04-22T05:14:09.144Z,93.30
2018-04-22T05:16:35.978Z,93.20
2018-04-22T05:19:02.810Z,93.20
2018-04-22T05:21:28.909Z,93.20
2018-04-22T05:23:54.993Z,93.20
2018-04-22T05:26:21.090Z,93.30
2018-04-22T05:28:47.917Z,92.50
2018-04-22T05:31:14.063Z,92.50
2018-04-22T05:33:40.114Z,90.40
2018-04-22T05:36:06.197Z,87.60
2018-04-22T05:38:33.333Z,83.20
2018-04-22T05:40:59.413Z,79.80
2018-04-22T05:43:25.500Z,75.70
2018-04-22T05:45:51.582Z,72.70
2018-04-22T05:48:17.681Z,70.10
2018-04-22T05:50:43.786Z,68.20
2018-04-22T05:53:10.634Z,69.50
2018-04-22T05:55:37.452Z,67.70
2018-04-22T05:58:05.027Z,66.40
2018-04-22T06:00:31.107Z,66.30
2018-04-22T06:02:57.201Z,64.20
2018-04-22T06:05:24.026Z,60.60
2018-04-22T06:07:50.866Z,59.80
2018-04-22T06:10:16.949Z,59.80
2018-04-22T06:12:43.049Z,59.00
2018-04-22T06:15:09.133Z,57.70
2018-04-22T06:17:35.210Z,57.00
2018-04-22T06:20:01.285Z,57.20
2018-04-22T06:22:27.373Z,58.00
2018-04-22T06:24:54.218Z,61.20
2018-04-22T06:27:20.297Z,61.20
2018-04-22T06:29:47.133Z,65.20
2018-04-22T06:32:13.962Z,66.50
2018-04-22T06:34:40.058Z,66.40
2018-04-22T06:37:06.133Z,67.40
2018-04-22T06:39:32.965Z,68.70
2018-04-22T06:41:59.050Z,68.70
2018-04-22T06:44:25.141Z,68.80
2018-04-22T06:46:51.218Z,68.90
2018-04-22T06:49:18.045Z,69.20
2018-04-22T06:51:44.133Z,69.40
2018-04-22T06:54:10.955Z,69.10
2018-04-22T06:56:37.797Z,68.90
2018-04-22T06:59:03.869Z,68.90
2018-04-22T07:01:29.969Z,68.70
2018-04-22T07:03:56.066Z,68.20
2018-04-22T07:06:22.149Z,67.80
2018-04-22T07:08:48.238Z,67.90
2018-04-22T07:11:15.071Z,67.70
2018-04-22T07:13:41.893Z,65.90
2018-04-22T07:16:11.130Z,65.90
2018-04-22T07:18:37.218Z,63.00
2018-04-22T07:21:03.325Z,60.20
2018-04-22T07:23:29.430Z,58.20
2018-04-22T07:25:55.517Z,57.50
2018-04-22T07:28:22.337Z,55.80
2018-04-22T07:30:48.453Z,55.80
2018-04-22T07:33:14.542Z,55.60
2018-04-22T07:35:40.649Z,55.00
2018-04-22T07:38:06.750Z,54.40
2018-04-22T07:44:06.449Z,53.30
2018-04-22T07:46:32.565Z,53.20
2018-04-22T07:48:58.681Z,53.40
2018-04-22T07:51:24.761Z,53.20
2018-04-22T07:53:50.845Z,52.80
2018-04-22T07:56:16.916Z,52.90
2018-04-22T07:58:42.994Z,51.50
2018-04-22T08:01:09.063Z,51.70
2018-04-22T08:03:35.125Z,50.60
2018-04-22T08:06:01.198Z,50.30
2018-04-22T08:08:27.273Z,49.90
2018-04-22T08:10:53.358Z,49.70
2018-04-22T08:13:20.450Z,49.10
2018-04-22T08:15:46.513Z,48.60
2018-04-22T08:18:12.578Z,48.10
2018-04-22T08:20:39.394Z,47.40
2018-04-22T08:23:05.474Z,47.40
2018-04-22T08:25:31.549Z,46.80
2018-04-22T08:27:57.638Z,46.50
2018-04-22T08:30:23.713Z,46.30
2018-04-22T08:33:12.091Z,45.70
2018-04-22T08:35:38.161Z,46.30
2018-04-22T08:38:08.585Z,44.90
2018-04-22T08:40:34.657Z,44.60
2018-04-22T08:43:00.754Z,44.10
2018-04-22T08:45:26.830Z,43.80
2018-04-22T08:47:52.913Z,43.00
2018-04-22T08:50:19.730Z,40.40
2018-04-22T08:52:45.818Z,40.90
2018-04-22T08:55:11.909Z,40.60
2018-04-22T08:57:38.760Z,40.30
2018-04-22T09:00:16.061Z,39.70
2018-04-22T09:03:05.742Z,39.70
2018-04-22T09:05:35.241Z,39.60
2018-04-22T09:08:05.741Z,38.50
2018-04-22T09:10:33.745Z,38.40
2018-04-22T09:12:59.825Z,37.60
2018-04-22T09:15:49.250Z,37.20
2018-04-22T09:18:15.321Z,37.20
2018-04-22T09:20:41.422Z,36.30
2018-04-22T09:23:07.509Z,35.80
2018-04-22T09:25:34.365Z,34.80
2018-04-22T09:28:00.482Z,34.80
2018-04-22T09:30:26.537Z,34.20
2018-04-22T09:32:52.625Z,34.80
2018-04-22T09:35:19.448Z,34.80
2018-04-22T09:37:45.549Z,34.80
2018-04-22T09:40:11.628Z,34.80
2018-04-22T09:42:37.717Z,34.10
2018-04-22T09:45:03.806Z,34.40
2018-04-22T09:47:29.897Z,34.00
2018-04-22T09:49:56.724Z,33.20
2018-04-22T09:52:23.556Z,32.90
2018-04-22T09:54:49.631Z,32.80
2018-04-22T09:57:15.718Z,32.80
2018-04-22T09:59:41.798Z,32.90
2018-04-22T10:02:14.185Z,32.90
2018-04-22T10:04:40.262Z,32.30
2018-04-22T10:07:06.330Z,32.50
2018-04-22T10:09:32.411Z,32.90
2018-04-22T10:11:59.222Z,32.80
2018-04-22T10:14:25.293Z,32.80
2018-04-22T10:16:51.361Z,32.60
2018-04-22T10:19:17.456Z,32.00
2018-04-22T10:21:43.534Z,32.00
2018-04-22T10:24:09.618Z,32.30
2018-04-22T10:26:35.693Z,31.50
2018-04-22T10:29:02.514Z,31.90
2018-04-22T10:31:28.586Z,31.70
2018-04-22T10:33:54.666Z,31.60
2018-04-22T10:36:20.739Z,31.50
2018-04-22T10:38:46.825Z,31.80
2018-04-22T10:41:28.402Z,32.40
2018-04-22T10:43:54.497Z,31.80
2018-04-22T10:46:20.585Z,31.70
2018-04-22T10:48:46.666Z,31.80
2018-04-22T10:51:12.789Z,32.20
2018-04-22T10:53:38.873Z,31.90
2018-04-22T10:56:04.958Z,32.00
2018-04-22T10:58:31.030Z,32.40
2018-04-22T11:00:57.103Z,32.00
2018-04-22T11:03:23.179Z,32.00
2018-04-22T11:05:49.254Z,32.00
2018-04-22T11:08:15.327Z,32.30
2018-04-22T11:10:41.406Z,32.10
2018-04-22T11:13:07.499Z,31.80
2018-04-22T11:15:34.390Z,31.40
2018-04-22T11:18:00.461Z,31.60
2018-04-22T11:20:26.533Z,31.30
2018-04-22T11:22:52.614Z,31.60
2018-04-22T11:25:18.689Z,31.50
2018-04-22T11:27:45.558Z,31.40
2018-04-22T11:30:11.621Z,31.00
2018-04-22T11:32:37.718Z,31.00
2018-04-22T11:35:09.342Z,31.30
2018-04-22T11:37:36.162Z,31.60
2018-04-22T11:40:02.235Z,31.60
2018-04-22T11:42:28.312Z,31.60
2018-04-22T11:44:54.386Z,31.50
2018-04-22T11:47:20.465Z,31.70
2018-04-22T11:49:46.542Z,31.80
2018-04-22T11:52:12.641Z,31.90
2018-04-22T11:54:39.467Z,31.90
2018-04-22T11:57:07.037Z,31.80
2018-04-22T11:59:33.118Z,31.80
2018-04-22T12:01:59.213Z,32.20
2018-04-22T12:04:25.846Z,31.50
2018-04-22T12:06:52.681Z,30.70
2018-04-22T12:09:19.514Z,30.80
2018-04-22T12:11:46.341Z,30.90
2018-04-22T12:14:12.434Z,30.90
2018-04-22T12:16:38.520Z,30.60
2018-04-22T12:19:05.346Z,30.60
2018-04-22T12:21:32.177Z,31.00
2018-04-22T12:23:58.281Z,30.30
2018-04-22T12:26:24.373Z,30.70
2018-04-22T12:28:50.465Z,30.00
2018-04-22T12:31:38.738Z,29.80
2018-04-22T12:34:04.829Z,30.00
2018-04-22T12:36:30.914Z,30.20
2018-04-22T12:38:56.998Z,30.30
2018-04-22T12:41:52.990Z,30.30
2018-04-22T12:44:19.094Z,30.30
2018-04-22T12:46:45.177Z,30.50
2018-04-22T12:49:12.009Z,31.80
2018-04-22T12:51:38.102Z,31.80
2018-04-22T12:54:04.193Z,31.20
2018-04-22T12:56:30.274Z,31.00
2018-04-22T12:58:56.370Z,31.30
2018-04-22T13:01:22.685Z,30.60
2018-04-22T13:03:48.906Z,30.40
2018-04-22T13:06:14.981Z,30.00
2018-04-22T13:08:41.049Z,29.80
2018-04-22T13:11:07.126Z,30.00
2018-04-22T13:13:33.202Z,30.20
2018-04-22T13:15:59.277Z,30.10
2018-04-22T13:18:25.345Z,29.90
2018-04-22T13:20:51.426Z,30.20
2018-04-22T13:23:17.515Z,29.70
2018-04-22T13:25:43.664Z,29.40
2018-04-22T13:28:09.686Z,29.10
2018-04-22T13:30:35.767Z,29.00
2018-04-22T13:33:02.573Z,29.60
2018-04-22T13:35:28.666Z,29.50
2018-04-22T13:37:54.733Z,29.80
2018-04-22T13:40:20.806Z,29.80
2018-04-22T13:42:46.889Z,29.60
2018-04-22T13:45:12.962Z,29.40
2018-04-22T13:47:39.038Z,29.50
2018-04-22T13:50:05.848Z,29.50
2018-04-22T13:52:31.930Z,29.40
2018-04-22T13:54:58.737Z,29.50
2018-04-22T13:57:24.812Z,29.40
2018-04-22T13:59:50.882Z,28.90
2018-04-22T14:02:16.957Z,29.00
2018-04-22T14:04:43.027Z,28.50
2018-04-22T14:07:09.092Z,28.40
2018-04-22T14:09:35.897Z,28.80
2018-04-22T14:12:01.987Z,28.70
2018-04-22T14:14:28.049Z,29.30
2018-04-22T14:16:54.117Z,29.20
2018-04-22T14:19:20.189Z,29.60
2018-04-22T14:21:46.272Z,29.60
2018-04-22T14:24:12.365Z,29.50
2018-04-22T14:26:38.429Z,29.10
2018-04-22T14:29:04.516Z,28.90
2018-04-22T14:31:30.587Z,29.10
2018-04-22T14:33:56.661Z,29.80
2018-04-22T14:36:22.725Z,29.40
2018-04-22T14:38:48.802Z,29.80
2018-04-22T14:41:14.873Z,29.70
2018-04-22T14:43:59.745Z,29.50
2018-04-22T14:46:25.820Z,28.90
2018-04-22T14:49:05.019Z,28.80
2018-04-22T14:51:31.106Z,28.70
2018-04-22T14:53:57.987Z,28.70
2018-04-22T14:56:24.749Z,29.10
2018-04-22T14:58:50.844Z,29.10
2018-04-22T15:01:16.919Z,29.10
2018-04-22T15:03:43.014Z,28.90
2018-04-22T15:06:09.142Z,29.10
2018-04-22T15:08:35.214Z,28.40
2018-04-22T15:11:02.029Z,28.10
2018-04-22T15:13:28.110Z,28.10
2018-04-22T15:15:54.193Z,28.10
2018-04-22T15:18:20.322Z,28.00
2018-04-22T15:20:46.400Z,28.00
2018-04-22T15:23:12.478Z,28.50
2018-04-22T15:25:38.558Z,28.60
2018-04-22T15:28:04.638Z,28.70
2018-04-22T15:30:31.485Z,28.20
2018-04-22T15:32:58.301Z,28.30
2018-04-22T15:35:24.379Z,28.30
2018-04-22T15:37:50.458Z,28.20
2018-04-22T15:40:16.530Z,28.00
2018-04-22T15:42:42.630Z,28.50
2018-04-22T15:45:09.435Z,29.00
2018-04-22T15:47:35.513Z,28.90
2018-04-22T15:50:01.574Z,28.90
2018-04-22T15:52:27.652Z,29.10
2018-04-22T15:54:53.733Z,29.30
2018-04-22T15:57:19.805Z,29.30
2018-04-22T15:59:45.876Z,29.80
2018-04-22T16:02:11.955Z,30.40
2018-04-22T16:04:38.762Z,31.20
2018-04-22T16:07:04.833Z,31.20
2018-04-22T16:09:30.950Z,32.10
2018-04-22T16:11:57.053Z,32.30
2018-04-22T16:14:23.173Z,32.20
2018-04-22T16:16:49.205Z,32.10
2018-04-22T16:19:16.021Z,31.70
2018-04-22T16:22:10.507Z,32.00
2018-04-22T16:24:36.579Z,32.20
2018-04-22T16:27:03.381Z,33.20
2018-04-22T16:29:29.456Z,33.20
2018-04-22T16:31:55.529Z,33.30
2018-04-22T16:34:21.609Z,33.40
2018-04-22T16:36:47.673Z,33.70
2018-04-22T16:39:13.754Z,33.70
2018-04-22T16:41:39.842Z,34.60
2018-04-22T16:44:05.938Z,34.70
2018-04-22T16:46:32.005Z,34.80
2018-04-22T16:48:58.078Z,35.20
2018-04-22T16:51:24.165Z,36.00
2018-04-22T16:53:51.002Z,36.80
2018-04-22T16:56:17.827Z,37.30
2018-04-22T16:58:43.938Z,37.20
2018-04-22T17:01:10.028Z,37.80
2018-04-22T17:03:37.150Z,38.80
2018-04-22T17:06:07.693Z,40.80
2018-04-22T17:08:42.209Z,41.80
2018-04-22T17:11:08.266Z,41.80
2018-04-22T17:13:34.347Z,43.50
2018-04-22T17:16:01.174Z,45.00
2018-04-22T17:18:28.746Z,45.70
2018-04-22T17:20:55.593Z,46.30
2018-04-22T17:23:21.678Z,46.20
2018-04-22T17:25:47.780Z,47.20
2018-04-22T17:28:13.871Z,47.00
2018-04-22T17:30:40.702Z,48.70
2018-04-22T17:33:06.789Z,48.10
2018-04-22T17:35:32.881Z,48.40
2018-04-22T17:41:01.594Z,49.20
2018-04-22T17:49:29.200Z,50.00
2018-04-22T17:51:55.290Z,50.10
2018-04-22T17:54:21.357Z,50.50
2018-04-22T17:56:47.441Z,50.90
2018-04-22T17:59:13.517Z,51.30
2018-04-22T18:01:39.668Z,52.00
2018-04-22T18:04:06.417Z,53.60
2018-04-22T18:06:32.499Z,53.60
2018-04-22T18:08:58.566Z,54.30
2018-04-22T18:11:24.638Z,55.00
2018-04-22T18:13:51.458Z,55.70
2018-04-22T18:16:17.525Z,55.70
2018-04-22T18:18:43.613Z,55.90
2018-04-22T18:21:10.430Z,56.30
2018-04-22T18:23:36.500Z,56.20
2018-04-22T18:26:03.455Z,56.30
2018-04-22T18:28:29.537Z,56.50
2018-04-22T18:30:55.614Z,56.90
2018-04-22T18:33:21.680Z,57.00
2018-04-22T18:48:08.954Z,58.10
2018-04-22T18:50:35.030Z,58.20
2018-04-22T18:53:01.117Z,58.20
2018-04-22T18:55:27.209Z,58.30
2018-04-22T18:57:53.294Z,58.30
2018-04-22T19:00:19.369Z,58.50
2018-04-22T19:02:45.466Z,58.80
2018-04-22T19:05:12.304Z,59.20
2018-04-22T19:07:39.139Z,59.40
2018-04-22T19:10:05.225Z,59.30
2018-04-22T19:12:31.302Z,59.70
2018-04-22T19:14:58.138Z,60.30
2018-04-22T19:17:24.958Z,60.70
2018-04-22T19:19:51.046Z,60.40
2018-04-22T19:22:17.138Z,60.60
2018-04-22T19:24:43.957Z,61.40
2018-04-22T19:27:10.042Z,61.40
2018-04-22T19:29:36.158Z,61.60
2018-04-22T19:32:02.250Z,61.60
2018-04-22T19:34:29.082Z,62.70
2018-04-22T19:36:55.176Z,61.90
2018-04-22T19:39:22.230Z,62.00
2018-04-22T19:41:48.322Z,62.20
2018-04-22T19:44:14.919Z,62.40
2018-04-22T19:46:41.003Z,62.60
2018-04-22T19:49:10.133Z,62.80
2018-04-22T19:57:40.022Z,63.10
2018-04-22T20:00:06.842Z,63.30
2018-04-22T20:02:32.927Z,63.20
2018-04-22T20:04:59.018Z,63.30
2018-04-22T20:07:25.851Z,63.60
2018-04-22T20:09:52.690Z,63.80
2018-04-22T20:12:18.778Z,63.70
2018-04-22T20:14:44.861Z,63.90
2018-04-22T20:20:28.477Z,64.40
2018-04-22T20:22:59.959Z,64.40
2018-04-22T20:25:31.501Z,65.00
2018-04-22T20:34:15.682Z,65.20
2018-04-22T20:39:52.030Z,65.40
2018-04-22T20:42:18.129Z,65.80
2018-04-22T20:44:44.214Z,66.00
2018-04-22T20:47:10.297Z,66.20
2018-04-22T20:49:36.385Z,66.60
2018-04-22T20:55:03.470Z,66.90
2018-04-22T20:57:29.549Z,67.10
2018-04-22T20:59:55.649Z,67.30
2018-04-22T21:02:21.731Z,67.80
2018-04-22T21:04:52.269Z,68.60
2018-04-22T21:10:30.858Z,68.70
2018-04-22T21:12:56.933Z,69.20
2018-04-22T21:15:23.758Z,69.80
2018-04-22T21:17:55.126Z,69.80
2018-04-22T21:23:23.825Z,71.20
2018-04-22T21:25:50.667Z,70.60
2018-04-22T21:28:51.362Z,71.00
2018-04-22T21:31:17.454Z,71.70
2018-04-22T21:33:43.537Z,71.40
2018-04-22T21:36:09.633Z,71.60
2018-04-22T21:38:36.419Z,71.60
2018-04-22T21:41:05.324Z,71.50
2018-04-22T21:43:32.150Z,71.50
2018-04-22T21:45:58.243Z,71.40
2018-04-22T21:51:25.365Z,71.90
2018-04-22T22:03:07.902Z,74.10
2018-04-22T22:05:34.019Z,74.00
2018-04-22T22:08:00.105Z,74.50
2018-04-22T22:10:26.186Z,74.30
2018-04-22T22:12:52.277Z,74.50
2018-04-22T22:15:18.357Z,74.40
2018-04-22T22:17:45.185Z,74.40
2018-04-22T22:20:11.270Z,74.40
2018-04-22T22:22:37.362Z,74.70
2018-04-22T22:25:03.434Z,74.70
2018-04-22T22:27:29.522Z,74.70
2018-04-22T22:29:55.601Z,74.50
2018-04-22T22:32:21.698Z,74.40
2018-04-22T22:34:47.777Z,74.30
2018-04-22T22:37:14.607Z,74.20
2018-04-22T22:39:40.697Z,74.10
2018-04-22T22:42:06.811Z,74.80
2018-04-22T22:44:32.950Z,74.40
2018-04-22T22:46:59.038Z,74.20
2018-04-22T22:49:25.161Z,73.90
2018-04-22T22:51:51.206Z,73.90
2018-04-22T22:54:17.277Z,74.00
2018-04-22T22:56:43.350Z,74.10
2018-04-22T22:59:09.435Z,74.30
2018-04-22T23:01:35.763Z,74.30
2018-04-22T23:04:01.842Z,74.40
2018-04-22T23:06:27.910Z,74.30
2018-04-22T23:08:53.990Z,74.50
2018-04-22T23:11:20.061Z,74.40
2018-04-22T23:13:46.129Z,74.60
2018-04-22T23:16:12.197Z,74.60
2018-04-22T23:18:38.282Z,74.50
2018-04-22T23:21:04.352Z,74.30
2018-04-22T23:23:30.437Z,74.20
2018-04-22T23:25:56.518Z,74.00
2018-04-22T23:28:22.590Z,74.20
2018-04-22T23:30:48.666Z,75.90
2018-04-22T23:33:14.730Z,75.70
2018-04-22T23:35:40.809Z,75.30
2018-04-22T23:38:06.877Z,76.20
2018-04-22T23:40:39.160Z,76.40
2018-04-22T23:43:05.230Z,75.60
2018-04-22T23:45:32.178Z,75.10
2018-04-22T23:47:58.250Z,75.10
2018-04-22T23:50:29.806Z,75.50
2018-04-22T23:52:55.899Z,75.60
2018-04-22T23:55:22.725Z,76.10
2018-04-22T23:57:48.828Z,76.00
